createdAt,value
2018-09-09T00:01:57.863Z,95511.06
2018-09-09T00:04:26.842Z,95508.62
2018-09-09T00:06:55.864Z,95508.72
2018-09-09T00:09:29.869Z,95505.77
2018-09-09T00:11:58.920Z,95509.17
2018-09-09T00:14:27.874Z,95503.14
2018-09-09T00:16:56.788Z,95500.70
2018-09-09T00:19:25.723Z,95500.17
2018-09-09T00:21:54.733Z,95499.56
2018-09-09T00:24:23.732Z,95503.63
2018-09-09T00:26:52.716Z,95501.20
2018-09-09T00:29:21.693Z,95497.42
2018-09-09T00:31:50.604Z,95500.88
2018-09-09T00:34:19.521Z,95505.86
2018-09-09T00:36:48.543Z,95504.84
2018-09-09T00:39:17.454Z,95509.42
2018-09-09T00:41:46.558Z,95508.81
2018-09-09T00:44:15.522Z,95511.77
2018-09-09T00:46:44.635Z,95517.30
2018-09-09T00:49:18.706Z,95507.71
2018-09-09T00:51:52.747Z,95511.78
2018-09-09T00:54:21.713Z,95510.28
2018-09-09T00:56:50.672Z,95514.63
2018-09-09T00:59:19.596Z,95511.58
2018-09-09T01:01:48.551Z,95514.25
2018-09-09T01:04:17.468Z,95507.95
2018-09-09T01:06:46.485Z,95510.61
2018-09-09T01:09:16.296Z,95499.22
2018-09-09T01:11:45.195Z,95509.20
2018-09-09T01:14:14.083Z,95504.41
2018-09-09T01:16:43.019Z,95506.16
2018-09-09T01:19:11.994Z,95499.22
2018-09-09T01:21:40.960Z,95507.39
2018-09-09T01:24:09.889Z,95501.24
2018-09-09T01:26:38.896Z,95503.88
2018-09-09T01:29:07.835Z,95508.72
2018-09-09T01:31:36.752Z,95508.92
2018-09-09T01:34:05.671Z,95512.08
2018-09-09T01:36:34.637Z,95515.36
2018-09-09T01:39:03.728Z,95514.42
2018-09-09T01:41:32.637Z,95513.83
2018-09-09T01:44:01.520Z,95512.81
2018-09-09T01:46:30.437Z,95514.13
2018-09-09T01:48:59.403Z,95505.98
2018-09-09T01:51:28.396Z,95508.92
2018-09-09T01:53:57.306Z,95517.08
2018-09-09T01:56:26.360Z,95508.92
2018-09-09T01:58:55.278Z,95510.34
2018-09-09T02:01:24.280Z,95516.58
2018-09-09T02:03:53.255Z,95516.06
2018-09-09T02:06:22.206Z,95515.25
2018-09-09T02:08:51.153Z,95516.88
2018-09-09T02:11:20.094Z,95516.77
2018-09-09T02:13:49.027Z,95526.03
2018-09-09T02:16:17.939Z,95522.58
2018-09-09T02:18:46.916Z,95522.19
2018-09-09T02:21:15.883Z,95520.13
2018-09-09T02:23:44.855Z,95514.83
2018-09-09T02:26:13.859Z,95520.22
2018-09-09T02:28:42.756Z,95516.72
2018-09-09T02:31:11.764Z,95519.44
2018-09-09T02:36:08.517Z,95521.22
2018-09-09T02:38:37.449Z,95517.17
2018-09-09T02:41:06.661Z,95522.02
2018-09-09T02:43:35.646Z,95518.48
2018-09-09T02:46:04.560Z,95521.31
2018-09-09T02:48:33.489Z,95523.77
2018-09-09T02:51:02.404Z,95520.92
2018-09-09T02:53:31.444Z,95522.83
2018-09-09T02:56:00.456Z,95529.44
2018-09-09T02:58:29.380Z,95539.29
2018-09-09T03:00:58.322Z,95529.95
2018-09-09T03:03:27.244Z,95528.33
2018-09-09T03:05:56.236Z,95526.41
2018-09-09T03:08:25.222Z,95519.52
2018-09-09T03:10:59.235Z,95522.67
2018-09-09T03:13:28.153Z,95522.94
2018-09-09T03:15:57.052Z,95509.67
2018-09-09T03:18:26.098Z,95519.94
2018-09-09T03:20:55.008Z,95517.78
2018-09-09T03:23:23.933Z,95522.00
2018-09-09T03:25:52.844Z,95522.30
2018-09-09T03:28:21.895Z,95518.27
2018-09-09T03:30:50.797Z,95522.11
2018-09-09T03:33:19.761Z,95524.84
2018-09-09T03:35:48.676Z,95521.48
2018-09-09T03:38:17.780Z,95528.94
2018-09-09T03:40:46.841Z,95524.59
2018-09-09T03:43:15.813Z,95531.48
2018-09-09T03:45:44.844Z,95537.79
2018-09-09T03:48:13.820Z,95536.37
2018-09-09T03:50:42.724Z,95528.66
2018-09-09T03:53:11.640Z,95536.13
2018-09-09T03:55:40.540Z,95534.06
2018-09-09T03:58:09.525Z,95539.17
2018-09-09T04:00:38.561Z,95535.59
2018-09-09T04:03:07.982Z,95535.72
2018-09-09T04:05:36.997Z,95543.10
2018-09-09T04:08:06.099Z,95543.20
2018-09-09T04:10:35.052Z,95551.89
2018-09-09T04:13:03.991Z,95550.22
2018-09-09T04:15:32.945Z,95557.63
2018-09-09T04:18:01.916Z,95550.87
2018-09-09T04:20:30.949Z,95554.77
2018-09-09T04:22:59.860Z,95554.98
2018-09-09T04:25:28.824Z,95555.89
2018-09-09T04:27:57.817Z,95562.51
2018-09-09T04:30:26.798Z,95560.81
2018-09-09T04:32:55.840Z,95564.81
2018-09-09T04:35:24.752Z,95564.75
2018-09-09T04:37:53.802Z,95566.17
2018-09-09T04:40:22.736Z,95569.12
2018-09-09T04:42:51.667Z,95572.81
2018-09-09T04:45:20.821Z,95563.69
2018-09-09T04:47:49.880Z,95569.52
2018-09-09T04:50:18.872Z,95565.18
2018-09-09T04:52:47.779Z,95567.81
2018-09-09T04:55:16.767Z,95575.98
2018-09-09T04:57:45.657Z,95574.41
2018-09-09T05:00:14.623Z,95580.41
2018-09-09T05:02:43.569Z,95572.42
2018-09-09T05:05:12.504Z,95585.92
2018-09-09T05:07:41.431Z,95581.02
2018-09-09T05:10:10.371Z,95580.80
2018-09-09T05:12:39.460Z,95581.27
2018-09-09T05:15:08.432Z,95581.56
2018-09-09T05:17:37.336Z,95584.97
2018-09-09T05:20:06.307Z,95576.67
2018-09-09T05:22:35.313Z,95581.98
2018-09-09T05:25:04.306Z,95587.06
2018-09-09T05:27:33.225Z,95588.98
2018-09-09T05:30:02.216Z,95600.22
2018-09-09T05:32:31.120Z,95600.01
2018-09-09T05:35:00.092Z,95596.15
2018-09-09T05:37:29.017Z,95590.23
2018-09-09T05:39:57.945Z,95600.09
2018-09-09T05:42:26.977Z,95600.16
2018-09-09T05:44:56.046Z,95600.83
2018-09-09T05:47:25.081Z,95600.09
2018-09-09T05:49:54.304Z,95597.77
2018-09-09T05:52:23.252Z,95596.25
2018-09-09T05:54:52.258Z,95602.97
2018-09-09T05:57:21.182Z,95608.61
2018-09-09T05:59:50.127Z,95602.58
2018-09-09T06:02:19.093Z,95605.66
2018-09-09T06:04:48.080Z,95606.70
2018-09-09T06:07:17.052Z,95606.25
2018-09-09T06:09:45.960Z,95609.00
2018-09-09T06:12:14.960Z,95613.18
2018-09-09T06:14:43.892Z,95612.13
2018-09-09T06:17:12.936Z,95620.69
2018-09-09T06:19:41.871Z,95613.78
2018-09-09T06:22:10.776Z,95610.67
2018-09-09T06:24:39.801Z,95620.93
2018-09-09T06:27:08.712Z,95615.14
2018-09-09T06:29:37.736Z,95621.17
2018-09-09T06:32:06.820Z,95616.07
2018-09-09T06:34:36.224Z,95630.31
2018-09-09T06:37:05.170Z,95630.33
2018-09-09T06:39:34.153Z,95624.15
2018-09-09T06:42:03.112Z,95629.72
2018-09-09T06:44:32.016Z,95625.17
2018-09-09T06:47:01.076Z,95633.95
2018-09-09T06:49:30.249Z,95629.58
2018-09-09T06:51:59.592Z,95639.43
2018-09-09T06:54:28.816Z,95631.52
2018-09-09T06:56:57.775Z,95631.99
2018-09-09T06:59:27.528Z,95639.52
2018-09-09T07:01:56.600Z,95633.43
2018-09-09T07:04:25.593Z,95630.14
2018-09-09T07:06:54.556Z,95631.46
2018-09-09T07:09:23.666Z,95621.25
2018-09-09T07:11:52.705Z,95633.36
2018-09-09T07:14:21.692Z,95619.48
2018-09-09T07:16:50.627Z,95618.97
2018-09-09T07:19:19.650Z,95624.96
2018-09-09T07:21:48.641Z,95631.97
2018-09-09T07:24:17.646Z,95618.11
2018-09-09T07:26:46.644Z,95621.66
2018-09-09T07:29:16.381Z,95622.38
2018-09-09T07:31:45.323Z,95624.81
2018-09-09T07:34:14.507Z,95622.56
2018-09-09T07:36:43.461Z,95620.13
2018-09-09T07:39:12.462Z,95625.54
2018-09-09T07:41:41.420Z,95629.23
2018-09-09T07:44:10.362Z,95626.27
2018-09-09T07:46:39.388Z,95626.92
2018-09-09T07:49:08.381Z,95628.09
2018-09-09T07:51:37.320Z,95618.48
2018-09-09T07:54:06.268Z,95620.84
2018-09-09T07:56:35.255Z,95622.08
2018-09-09T07:59:04.307Z,95622.77
2018-09-09T08:01:33.314Z,95614.33
2018-09-09T08:04:02.296Z,95616.58
2018-09-09T08:06:31.223Z,95619.61
2018-09-09T08:09:00.226Z,95614.89
2018-09-09T08:11:34.228Z,95612.96
2018-09-09T08:14:03.291Z,95610.42
2018-09-09T08:16:32.348Z,95610.30
2018-09-09T08:19:01.523Z,95606.58
2018-09-09T08:21:30.476Z,95597.00
2018-09-09T08:23:59.885Z,95607.70
2018-09-09T08:26:28.844Z,95607.83
2018-09-09T08:28:57.792Z,95615.11
2018-09-09T08:31:26.913Z,95609.80
2018-09-09T08:33:55.910Z,95600.98
2018-09-09T08:36:24.838Z,95600.26
2018-09-09T08:38:53.764Z,95593.16
2018-09-09T08:41:22.732Z,95597.08
2018-09-09T08:43:51.773Z,95589.70
2018-09-09T08:46:20.704Z,95591.98
2018-09-09T08:48:49.744Z,95589.33
2018-09-09T08:51:18.704Z,95585.92
2018-09-09T08:53:47.683Z,95587.48
2018-09-09T08:56:16.867Z,95564.70
2018-09-09T08:58:45.876Z,95579.98
2018-09-09T09:01:14.841Z,95577.06
2018-09-09T09:03:43.816Z,95575.74
2018-09-09T09:06:12.937Z,95570.06
2018-09-09T09:08:41.930Z,95570.52
2018-09-09T09:11:10.890Z,95564.56
2018-09-09T09:13:39.871Z,95561.22
2018-09-09T09:16:08.797Z,95561.48
2018-09-09T09:18:37.809Z,95549.97
2018-09-09T09:21:06.752Z,95552.67
2018-09-09T09:23:35.850Z,95547.64
2018-09-09T09:26:04.813Z,95550.24
2018-09-09T09:28:34.653Z,95545.14
2018-09-09T09:31:03.588Z,95548.08
2018-09-09T09:33:32.580Z,95556.75
2018-09-09T09:36:01.677Z,95552.69
2018-09-09T09:38:30.680Z,95543.83
2018-09-09T09:40:59.665Z,95545.67
2018-09-09T09:43:28.576Z,95538.34
2018-09-09T09:45:57.508Z,95542.98
2018-09-09T09:48:26.478Z,95538.73
2018-09-09T09:50:55.427Z,95527.73
2018-09-09T09:53:24.402Z,95527.94
2018-09-09T09:55:53.932Z,95524.39
2018-09-09T09:58:22.940Z,95525.62
2018-09-09T10:00:56.966Z,95518.17
2018-09-09T10:03:26.088Z,95518.55
2018-09-09T10:05:55.027Z,95509.02
2018-09-09T10:08:24.092Z,95513.22
2018-09-09T10:10:53.115Z,95484.88
2018-09-09T10:13:22.118Z,95503.74
2018-09-09T10:15:51.058Z,95492.56
2018-09-09T10:18:19.976Z,95503.00
2018-09-09T10:20:48.966Z,95497.32
2018-09-09T10:23:18.539Z,95506.72
2018-09-09T10:25:47.460Z,95492.42
2018-09-09T10:28:16.445Z,95492.37
2018-09-09T10:30:45.413Z,95484.66
2018-09-09T10:33:14.387Z,95479.69
2018-09-09T10:35:43.377Z,95481.83
2018-09-09T10:38:12.553Z,95495.84
2018-09-09T10:40:41.558Z,95487.02
2018-09-09T10:43:10.495Z,95473.66
2018-09-09T10:45:39.553Z,95479.57
2018-09-09T10:48:08.568Z,95476.86
2018-09-09T10:50:37.502Z,95478.94
2018-09-09T10:53:06.591Z,95478.36
2018-09-09T10:55:35.538Z,95467.56
2018-09-09T10:58:04.601Z,95460.75
2018-09-09T11:00:34.729Z,95470.16
2018-09-09T11:03:03.840Z,95469.02
2018-09-09T11:05:32.768Z,95466.27
2018-09-09T11:08:01.690Z,95465.59
2018-09-09T11:10:30.647Z,95466.19
2018-09-09T11:12:59.767Z,95466.48
2018-09-09T11:15:28.668Z,95471.31
2018-09-09T11:17:57.603Z,95465.81
2018-09-09T11:20:26.553Z,95469.17
2018-09-09T11:22:55.480Z,95489.24
2018-09-09T11:25:24.688Z,95475.48
2018-09-09T11:27:53.671Z,95464.33
2018-09-09T11:30:22.679Z,95457.17
2018-09-09T11:32:51.727Z,95451.42
2018-09-09T11:35:20.665Z,95445.36
2018-09-09T11:37:49.624Z,95438.41
2018-09-09T11:40:18.613Z,95450.75
2018-09-09T11:42:47.630Z,95447.95
2018-09-09T11:45:16.608Z,95444.75
2018-09-09T11:47:45.650Z,95452.95
2018-09-09T11:50:15.456Z,95480.53
2018-09-09T11:52:44.500Z,95472.09
2018-09-09T11:55:13.644Z,95473.97
2018-09-09T11:57:42.655Z,95457.71
2018-09-09T12:00:11.673Z,95443.59
2018-09-09T12:02:40.668Z,95441.66
2018-09-09T12:05:09.681Z,95450.17
2018-09-09T12:07:38.687Z,95452.38
2018-09-09T12:10:07.704Z,95454.56
2018-09-09T12:12:36.805Z,95449.11
2018-09-09T12:15:05.960Z,95438.32
2018-09-09T12:17:34.927Z,95436.72
2018-09-09T12:20:03.914Z,95429.90
2018-09-09T12:22:32.903Z,95430.65
2018-09-09T12:25:01.832Z,95424.01
2018-09-09T12:27:30.848Z,95428.11
2018-09-09T12:29:59.873Z,95432.16
2018-09-09T12:32:28.914Z,95433.34
2018-09-09T12:34:57.990Z,95427.00
2018-09-09T12:37:26.939Z,95435.13
2018-09-09T12:39:55.980Z,95460.93
2018-09-09T12:42:24.923Z,95489.55
2018-09-09T12:44:58.933Z,95482.77
2018-09-09T12:47:33.140Z,95477.39
2018-09-09T12:50:02.105Z,95464.51
2018-09-09T12:52:31.083Z,95459.91
2018-09-09T12:55:00.064Z,95461.03
2018-09-09T12:57:29.000Z,95462.16
2018-09-09T12:59:57.991Z,95461.09
2018-09-09T13:02:26.919Z,95460.82
2018-09-09T13:04:55.861Z,95456.28
2018-09-09T13:07:24.966Z,95451.83
2018-09-09T13:09:53.867Z,95455.30
2018-09-09T13:12:22.835Z,95451.78
2018-09-09T13:14:51.772Z,95440.91
2018-09-09T13:17:20.748Z,95449.02
2018-09-09T13:19:49.650Z,95449.25
2018-09-09T13:22:18.631Z,95448.22
2018-09-09T13:24:47.551Z,95454.06
2018-09-09T13:27:16.560Z,95466.72
2018-09-09T13:29:45.512Z,95463.17
2018-09-09T13:32:14.540Z,95473.55
2018-09-09T13:34:43.440Z,95464.24
2018-09-09T13:37:12.544Z,95460.77
2018-09-09T13:39:41.467Z,95461.00
2018-09-09T13:42:10.485Z,95469.77
2018-09-09T13:44:39.911Z,95463.12
2018-09-09T13:47:09.249Z,95463.24
2018-09-09T13:49:38.722Z,95455.10
2018-09-09T13:52:07.906Z,95453.38
2018-09-09T13:54:36.945Z,95429.58
2018-09-09T13:57:05.969Z,95453.92
2018-09-09T13:59:34.872Z,95453.99
2018-09-09T14:02:03.864Z,95453.27
2018-09-09T14:04:32.824Z,95443.30
2018-09-09T14:07:01.814Z,95446.06
2018-09-09T14:09:31.003Z,95438.02
2018-09-09T14:11:59.939Z,95443.33
2018-09-09T14:14:28.851Z,95430.69
2018-09-09T14:16:57.811Z,95440.58
2018-09-09T14:19:26.786Z,95432.73
2018-09-09T14:21:55.760Z,95426.65
2018-09-09T14:24:24.770Z,95424.94
2018-09-09T14:26:53.696Z,95436.25
2018-09-09T14:29:22.682Z,95429.44
2018-09-09T14:31:51.650Z,95409.20
2018-09-09T14:34:20.648Z,95441.48
2018-09-09T14:36:49.689Z,95429.35
2018-09-09T14:39:18.598Z,95446.80
2018-09-09T14:41:47.864Z,95443.19
2018-09-09T14:44:17.112Z,95450.42
2018-09-09T14:46:46.209Z,95441.03
2018-09-09T14:49:15.515Z,95437.05
2018-09-09T14:51:44.481Z,95448.48
2018-09-09T14:54:14.115Z,95442.91
2018-09-09T14:56:43.566Z,95432.57
2018-09-09T14:59:13.281Z,95446.05
2018-09-09T15:01:44.092Z,95441.08
2018-09-09T15:04:13.064Z,95436.37
2018-09-09T15:06:42.111Z,95442.83
2018-09-09T15:09:12.144Z,95450.34
2018-09-09T15:11:41.356Z,95421.30
2018-09-09T15:14:10.530Z,95450.64
2018-09-09T15:16:39.650Z,95439.27
2018-09-09T15:19:08.564Z,95443.70
2018-09-09T15:21:37.580Z,95444.89
2018-09-09T15:24:06.532Z,95436.21
2018-09-09T15:26:35.661Z,95443.44
2018-09-09T15:29:04.657Z,95442.14
2018-09-09T15:31:33.671Z,95448.42
2018-09-09T15:34:02.725Z,95446.72
2018-09-09T15:36:31.761Z,95453.17
2018-09-09T15:39:00.833Z,95452.88
2018-09-09T15:41:29.820Z,95449.11
2018-09-09T15:43:58.803Z,95445.33
2018-09-09T15:46:27.836Z,95459.08
2018-09-09T15:48:56.810Z,95446.23
2018-09-09T15:51:25.840Z,95451.77
2018-09-09T15:53:54.816Z,95427.19
2018-09-09T15:56:23.940Z,95444.96
2018-09-09T15:58:53.006Z,95468.55
2018-09-09T16:01:22.796Z,95465.55
2018-09-09T16:03:52.931Z,95471.59
2018-09-09T16:06:22.751Z,95452.28
2018-09-09T16:08:51.727Z,95481.31
2018-09-09T16:11:20.706Z,95472.13
2018-09-09T16:13:49.646Z,95464.45
2018-09-09T16:16:18.640Z,95459.26
2018-09-09T16:18:47.727Z,95450.69
2018-09-09T16:21:16.650Z,95471.67
2018-09-09T16:23:45.612Z,95487.46
2018-09-09T16:26:14.595Z,95477.82
2018-09-09T16:28:43.503Z,95470.78
2018-09-09T16:31:12.421Z,95479.05
2018-09-09T16:33:41.325Z,95483.59
2018-09-09T16:36:10.292Z,95474.34
2018-09-09T16:38:39.239Z,95479.84
2018-09-09T16:41:08.270Z,95486.06
2018-09-09T16:43:37.257Z,95488.08
2018-09-09T16:46:06.244Z,95485.06
2018-09-09T16:48:35.276Z,95487.22
2018-09-09T16:51:04.227Z,95485.98
2018-09-09T16:53:33.135Z,95492.64
2018-09-09T16:56:02.126Z,95488.58
2018-09-09T16:58:31.048Z,95490.94
2018-09-09T17:01:00.128Z,95492.62
2018-09-09T17:03:29.076Z,95501.88
2018-09-09T17:05:57.999Z,95499.33
2018-09-09T17:08:26.907Z,95492.70
2018-09-09T17:10:55.808Z,95499.91
2018-09-09T17:13:24.697Z,95501.55
2018-09-09T17:15:53.599Z,95507.61
2018-09-09T17:18:22.605Z,95509.94
2018-09-09T17:20:51.624Z,95513.59
2018-09-09T17:23:20.598Z,95515.75
2018-09-09T17:25:49.434Z,95523.25
2018-09-09T17:28:18.266Z,95523.27
2018-09-09T17:30:47.123Z,95527.53
2018-09-09T17:33:15.981Z,95524.23
2018-09-09T17:35:44.862Z,95534.80
2018-09-09T17:38:13.671Z,95537.26
2018-09-09T17:40:42.502Z,95541.20
2018-09-09T17:43:11.351Z,95548.03
2018-09-09T17:45:40.214Z,95550.45
2018-09-09T17:48:09.040Z,95556.92
2018-09-09T17:50:37.895Z,95552.95
2018-09-09T17:53:06.735Z,95559.92
2018-09-09T17:55:35.540Z,95563.31
2018-09-09T17:58:04.431Z,95568.80
2018-09-09T18:00:33.291Z,95573.23
2018-09-09T18:03:02.186Z,95565.92
2018-09-09T18:05:31.072Z,95572.97
2018-09-09T18:08:00.258Z,95579.55
2018-09-09T18:10:29.139Z,95579.91
2018-09-09T18:12:58.119Z,95581.05
2018-09-09T18:15:27.058Z,95574.47
2018-09-09T18:17:55.903Z,95579.72
2018-09-09T18:20:24.906Z,95584.38
2018-09-09T18:22:53.812Z,95589.84
2018-09-09T18:25:22.715Z,95594.60
2018-09-09T18:27:51.550Z,95597.44
2018-09-09T18:30:20.432Z,95596.34
2018-09-09T18:32:49.416Z,95602.46
2018-09-09T18:35:18.240Z,95597.00
2018-09-09T18:37:47.508Z,95595.82
2018-09-09T18:40:16.336Z,95604.23
2018-09-09T18:42:45.307Z,95603.55
2018-09-09T18:45:14.148Z,95599.75
2018-09-09T18:47:42.964Z,95607.23
2018-09-09T18:50:11.816Z,95610.99
2018-09-09T18:52:47.327Z,95604.67
2018-09-09T18:55:19.575Z,95612.42
2018-09-09T18:57:48.989Z,95612.86
2018-09-09T19:00:18.391Z,95613.27
2018-09-09T19:02:47.262Z,95613.99
2018-09-09T19:05:17.504Z,95611.22
2018-09-09T19:07:46.512Z,95616.53
2018-09-09T19:10:15.784Z,95619.70
2018-09-09T19:12:44.651Z,95615.84
2018-09-09T19:15:13.500Z,95608.55
2018-09-09T19:17:43.326Z,95621.41
2018-09-09T19:20:12.199Z,95631.42
2018-09-09T19:22:41.038Z,95631.08
2018-09-09T19:25:09.986Z,95630.73
2018-09-09T19:27:38.887Z,95637.05
2018-09-09T19:30:07.794Z,95637.05
2018-09-09T19:32:36.685Z,95634.95
2018-09-09T19:35:05.708Z,95633.59
2018-09-09T19:37:34.539Z,95632.35
2018-09-09T19:40:03.457Z,95632.56
2018-09-09T19:42:35.652Z,95623.24
2018-09-09T19:45:05.727Z,95629.80
2018-09-09T19:47:35.036Z,95622.84
2018-09-09T19:50:05.015Z,95621.86
2018-09-09T19:52:34.090Z,95624.52
2018-09-09T19:55:02.946Z,95615.95
2018-09-09T19:57:31.834Z,95626.82
2018-09-09T20:00:00.664Z,95620.69
2018-09-09T20:02:29.658Z,95624.08
2018-09-09T20:04:58.547Z,95618.66
2018-09-09T20:07:27.401Z,95622.12
2018-09-09T20:09:56.326Z,95623.95
2018-09-09T20:12:25.170Z,95629.98
2018-09-09T20:14:54.040Z,95618.36
2018-09-09T20:17:22.858Z,95623.06
2018-09-09T20:19:51.699Z,95620.63
2018-09-09T20:22:20.523Z,95618.48
2018-09-09T20:24:49.369Z,95622.59
2018-09-09T20:27:18.298Z,95620.25
2018-09-09T20:29:47.197Z,95626.64
2018-09-09T20:32:16.100Z,95624.78
2018-09-09T20:34:44.920Z,95623.48
2018-09-09T20:37:13.794Z,95629.70
2018-09-09T20:39:42.679Z,95625.30
2018-09-09T20:42:11.508Z,95622.05
2018-09-09T20:44:40.381Z,95627.07
2018-09-09T20:47:09.206Z,95623.89
2018-09-09T20:49:38.067Z,95631.15
2018-09-09T20:52:07.031Z,95625.85
2018-09-09T20:54:35.843Z,95631.14
2018-09-09T20:57:04.686Z,95624.09
2018-09-09T20:59:33.518Z,95628.09
2018-09-09T21:02:02.367Z,95627.44
2018-09-09T21:04:31.214Z,95630.09
2018-09-09T21:07:00.031Z,95628.51
2018-09-09T21:09:28.870Z,95632.11
2018-09-09T21:11:57.725Z,95628.67
2018-09-09T21:14:26.596Z,95627.33
2018-09-09T21:16:55.443Z,95638.75
2018-09-09T21:19:24.325Z,95639.72
2018-09-09T21:21:53.151Z,95637.41
2018-09-09T21:24:21.988Z,95630.48
2018-09-09T21:26:50.829Z,95627.48
2018-09-09T21:29:19.646Z,95631.84
2018-09-09T21:31:48.522Z,95627.83
2018-09-09T21:34:17.334Z,95633.25
2018-09-09T21:36:46.226Z,95630.38
2018-09-09T21:39:15.069Z,95633.33
2018-09-09T21:41:43.887Z,95630.42
2018-09-09T21:44:12.839Z,95626.53
2018-09-09T21:46:41.663Z,95631.89
2018-09-09T21:49:10.553Z,95629.53
2018-09-09T21:51:39.412Z,95630.16
2018-09-09T21:54:08.347Z,95636.34
2018-09-09T21:56:37.173Z,95632.22
2018-09-09T21:59:06.127Z,95634.02
2018-09-09T22:01:40.031Z,95634.53
2018-09-09T22:04:08.868Z,95631.20
2018-09-09T22:06:37.708Z,95630.39
2018-09-09T22:09:08.894Z,95628.98
2018-09-09T22:11:38.480Z,95633.06
2018-09-09T22:14:07.407Z,95631.74
2018-09-09T22:16:36.331Z,95625.63
2018-09-09T22:19:05.176Z,95628.66
2018-09-09T22:21:34.008Z,95622.75
2018-09-09T22:24:03.026Z,95616.87
2018-09-09T22:26:31.913Z,95620.47
2018-09-09T22:29:00.716Z,95617.52
2018-09-09T22:31:29.530Z,95608.16
2018-09-09T22:33:58.848Z,95615.38
2018-09-09T22:36:27.742Z,95618.34
2018-09-09T22:38:56.623Z,95615.98
2018-09-09T22:41:25.619Z,95616.70
2018-09-09T22:43:54.992Z,95615.03
2018-09-09T22:46:23.870Z,95620.83
2018-09-09T22:48:52.826Z,95618.05
2018-09-09T22:51:21.656Z,95614.88
2018-09-09T22:53:50.491Z,95620.07
2018-09-09T22:56:19.610Z,95619.80
2018-09-09T22:58:48.415Z,95620.27
2018-09-09T23:01:17.238Z,95626.31
2018-09-09T23:03:46.047Z,95626.75
2018-09-09T23:06:14.986Z,95623.16
2018-09-09T23:08:44.094Z,95622.06
2018-09-09T23:11:13.103Z,95619.18
2018-09-09T23:13:42.306Z,95624.98
2018-09-09T23:16:11.146Z,95615.79
2018-09-09T23:18:40.007Z,95619.63
2018-09-09T23:21:08.881Z,95626.75
2018-09-09T23:23:37.705Z,95618.88
2018-09-09T23:26:06.631Z,95612.40
2018-09-09T23:28:35.666Z,95614.50
2018-09-09T23:31:04.502Z,95614.44
2018-09-09T23:33:33.332Z,95617.19
2018-09-09T23:36:02.189Z,95623.30
2018-09-09T23:38:31.023Z,95615.35
2018-09-09T23:40:59.918Z,95616.13
2018-09-09T23:43:28.717Z,95615.12
2018-09-09T23:45:57.545Z,95609.83
2018-09-09T23:48:26.366Z,95613.19
2018-09-09T23:50:55.261Z,95605.81
2018-09-09T23:53:24.109Z,95608.19
2018-09-09T23:55:52.963Z,95605.74
2018-09-09T23:58:21.849Z,95610.60
